Time;durP1;ratioP1;P1;durP2;ratioP2;P2;SDS_P1;SDS_P2;PMS_P1;PMS_P2;Temp;Humidity;BMP_temperature;BMP_pressure;BME280_temperature;BME280_humidity;BME280_pressure;Samples;Min_cycle;Max_cycle;Signal;HPM_P1;HPM_P2
2021/10/28 00:14:21;;;;;;;18.20;13.00;;;;;;;;;;4953830;29;20185;-86
2021/10/28 00:16:50;;;;;;;36.73;20.27;;;;;;;;;;4954054;29;20312;-87
2021/10/28 00:19:18;;;;;;;30.77;18.47;;;;;;;;;;4953831;29;20201;-86
2021/10/28 00:21:46;;;;;;;20.30;15.03;;;;;;;;;;4953401;29;20257;-86
2021/10/28 00:24:14;;;;;;;37.47;21.97;;;;;;;;;;4954077;29;20202;-86
2021/10/28 00:26:43;;;;;;;39.70;24.37;;;;;;;;;;4953516;29;20205;-86
2021/10/28 00:29:14;;;;;;;37.20;22.87;;;;;;;;;;4953675;28;20209;-86
2021/10/28 00:31:44;;;;;;;30.33;19.97;;;;;;;;;;4957272;29;20229;-87
2021/10/28 00:34:13;;;;;;;36.93;23.67;;;;;;;;;;4957313;29;20194;-86
2021/10/28 00:36:41;;;;;;;114.57;65.37;;;;;;;;;;4957127;29;20232;-86
2021/10/28 00:39:09;;;;;;;41.70;28.77;;;;;;;;;;4957329;29;20209;-86
2021/10/28 00:41:38;;;;;;;21.43;15.90;;;;;;;;;;4957222;29;20229;-86
2021/10/28 00:44:07;;;;;;;15.93;11.47;;;;;;;;;;4957186;29;20198;-86
2021/10/28 00:46:37;;;;;;;11.73;9.17;;;;;;;;;;4956909;29;20198;-86
2021/10/28 00:49:08;;;;;;;9.13;7.97;;;;;;;;;;5186765;23;20722;-83
2021/10/28 00:51:35;;;;;;;20.40;14.27;;;;;;;;;;4939163;29;20226;-83
2021/10/28 00:54:05;;;;;;;24.33;15.00;;;;;;;;;;4956707;29;20194;-82
2021/10/28 00:56:33;;;;;;;14.63;10.90;;;;;;;;;;4956823;29;20260;-82
2021/10/28 00:59:01;;;;;;;11.73;8.10;;;;;;;;;;4956987;29;20205;-82
2021/10/28 01:01:28;;;;;;;9.40;8.50;;;;;;;;;;4956781;29;20687;-81
2021/10/28 01:03:55;;;;;;;9.70;7.60;;;;;;;;;;4957030;29;20745;-82
2021/10/28 01:06:24;;;;;;;9.10;7.80;;;;;;;;;;4956903;29;20233;-81
2021/10/28 01:08:52;;;;;;;11.70;8.73;;;;;;;;;;4956929;29;20257;-82
2021/10/28 01:11:19;;;;;;;46.37;27.60;;;;;;;;;;4956433;29;20197;-82
2021/10/28 01:13:46;;;;;;;23.93;15.63;;;;;;;;;;4956935;29;20248;-82
2021/10/28 01:16:14;;;;;;;18.70;13.13;;;;;;;;;;4956777;29;20256;-82
2021/10/28 01:18:41;;;;;;;12.27;9.70;;;;;;;;;;4956264;29;20229;-82
2021/10/28 01:21:10;;;;;;;12.13;9.80;;;;;;;;;;4956323;29;20198;-82
2021/10/28 01:23:41;;;;;;;18.60;12.80;;;;;;;;;;4956374;29;20594;-82
2021/10/28 01:26:10;;;;;;;24.03;17.30;;;;;;;;;;4956232;29;20194;-82
2021/10/28 01:28:39;;;;;;;25.80;19.63;;;;;;;;;;4956523;29;20248;-82
2021/10/28 01:31:08;;;;;;;29.90;21.70;;;;;;;;;;4955895;29;20213;-82
2021/10/28 01:33:36;;;;;;;18.27;13.37;;;;;;;;;;4956215;29;20276;-82
2021/10/28 01:36:05;;;;;;;11.33;8.47;;;;;;;;;;4956338;29;20236;-83
2021/10/28 01:38:33;;;;;;;8.53;7.60;;;;;;;;;;4956388;29;20233;-83
2021/10/28 01:41:03;;;;;;;10.27;8.20;;;;;;;;;;4955160;28;20644;-82
2021/10/28 01:43:32;;;;;;;11.00;8.03;;;;;;;;;;4956035;29;20201;-82
2021/10/28 01:46:00;;;;;;;7.60;6.90;;;;;;;;;;4956331;29;20555;-82
2021/10/28 01:48:28;;;;;;;8.17;7.37;;;;;;;;;;4955921;28;20256;-82
2021/10/28 01:50:55;;;;;;;9.03;6.77;;;;;;;;;;4955758;29;20655;-82
2021/10/28 01:53:22;;;;;;;7.33;6.63;;;;;;;;;;4956018;29;20202;-82
2021/10/28 01:55:52;;;;;;;8.93;7.60;;;;;;;;;;4955842;29;20228;-83
2021/10/28 01:58:22;;;;;;;17.03;12.23;;;;;;;;;;4956140;29;20320;-83
2021/10/28 02:00:50;;;;;;;10.53;9.53;;;;;;;;;;4956475;29;20575;-83
2021/10/28 02:03:17;;;;;;;8.60;7.67;;;;;;;;;;4956134;29;20245;-83
2021/10/28 02:05:45;;;;;;;8.70;7.10;;;;;;;;;;4956376;29;20205;-83
2021/10/28 02:08:12;;;;;;;9.43;7.70;;;;;;;;;;4956270;29;20252;-83
2021/10/28 02:10:40;;;;;;;16.77;12.37;;;;;;;;;;4955350;29;20237;-82
2021/10/28 02:13:08;;;;;;;30.30;22.13;;;;;;;;;;4955069;29;20201;-83
2021/10/28 02:15:36;;;;;;;23.17;14.63;;;;;;;;;;4955770;29;20240;-83
2021/10/28 02:18:03;;;;;;;20.73;14.00;;;;;;;;;;4955071;29;20265;-82
2021/10/28 02:20:30;;;;;;;15.47;11.50;;;;;;;;;;4955278;29;20229;-82
2021/10/28 02:22:58;;;;;;;11.63;10.27;;;;;;;;;;4955614;29;20198;-82
2021/10/28 02:25:25;;;;;;;10.33;9.17;;;;;;;;;;4955373;29;20241;-82
2021/10/28 02:27:52;;;;;;;8.40;7.60;;;;;;;;;;4955303;29;20574;-83
2021/10/28 02:30:21;;;;;;;11.77;7.60;;;;;;;;;;4954991;29;20292;-83
2021/10/28 02:32:49;;;;;;;8.30;7.50;;;;;;;;;;4955300;29;20237;-82
2021/10/28 02:35:17;;;;;;;8.47;7.37;;;;;;;;;;4954887;29;20288;-83
2021/10/28 02:37:45;;;;;;;8.00;7.20;;;;;;;;;;4955422;29;20230;-83
2021/10/28 02:40:13;;;;;;;7.10;6.50;;;;;;;;;;4954765;29;20201;-82
2021/10/28 02:42:41;;;;;;;9.13;6.93;;;;;;;;;;4955216;29;20257;-83
2021/10/28 02:45:10;;;;;;;8.03;7.33;;;;;;;;;;4954595;29;20234;-83
2021/10/28 02:47:39;;;;;;;11.37;7.47;;;;;;;;;;4955005;29;20579;-83
2021/10/28 02:50:07;;;;;;;8.43;6.23;;;;;;;;;;4955064;29;20277;-83
2021/10/28 02:52:35;;;;;;;12.23;7.43;;;;;;;;;;4954696;28;20442;-83
2021/10/28 02:55:03;;;;;;;8.93;6.93;;;;;;;;;;4954704;29;20213;-82
2021/10/28 02:57:31;;;;;;;8.07;7.27;;;;;;;;;;4955624;29;20321;-83
2021/10/28 02:59:58;;;;;;;7.67;6.93;;;;;;;;;;4955014;29;20215;-83
2021/10/28 03:02:25;;;;;;;10.27;7.20;;;;;;;;;;4957012;29;20233;-83
2021/10/28 03:04:56;;;;;;;7.13;6.43;;;;;;;;;;4963952;29;20208;-84
2021/10/28 03:07:23;;;;;;;7.70;6.93;;;;;;;;;;4963920;29;20210;-83
2021/10/28 03:09:51;;;;;;;7.97;7.13;;;;;;;;;;4963272;29;20206;-83
2021/10/28 03:12:18;;;;;;;8.13;7.30;;;;;;;;;;4962979;29;20224;-84
2021/10/28 03:14:50;;;;;;;7.30;6.60;;;;;;;;;;4964777;29;20276;-85
2021/10/28 03:17:33;;;;;;;8.33;6.80;;;;;;;;;;4963021;29;20210;-84
2021/10/28 03:25:39;;;;;;;8.07;7.27;;;;;;;;;;4953349;29;20202;-84
2021/10/28 03:28:13;;;;;;;6.77;6.07;;;;;;;;;;4953220;29;20241;-84
2021/10/28 03:30:40;;;;;;;9.07;7.23;;;;;;;;;;4953146;29;20225;-84
2021/10/28 03:33:10;;;;;;;9.80;8.23;;;;;;;;;;4953649;29;20682;-84
2021/10/28 03:35:40;;;;;;;17.90;16.00;;;;;;;;;;4953527;29;20198;-84
2021/10/28 03:38:14;;;;;;;12.53;9.93;;;;;;;;;;4953159;29;20285;-84
2021/10/28 03:41:01;;;;;;;12.30;8.73;;;;;;;;;;4952994;29;20201;-85
2021/10/28 03:43:46;;;;;;;10.03;7.93;;;;;;;;;;4953197;29;20681;-85
2021/10/28 03:46:37;;;;;;;8.03;7.23;;;;;;;;;;4953007;29;20285;-84
2021/10/28 04:20:51;;;;;;;11.17;8.10;;;;;;;;;;4930223;29;20217;-84
2021/10/28 04:29:02;;;;;;;18.23;16.33;;;;;;;;;;4937223;29;20277;-84
2021/10/28 04:31:32;;;;;;;16.10;14.50;;;;;;;;;;4936931;29;20183;-84
2021/10/28 04:34:02;;;;;;;9.03;8.07;;;;;;;;;;4937169;29;20206;-84
2021/10/28 04:36:30;;;;;;;8.43;7.60;;;;;;;;;;4937079;29;20236;-83
2021/10/28 04:38:58;;;;;;;10.67;9.57;;;;;;;;;;4937056;29;20222;-84
2021/10/28 04:41:27;;;;;;;11.27;9.97;;;;;;;;;;4936722;29;20665;-84
2021/10/28 04:43:55;;;;;;;14.27;12.87;;;;;;;;;;4937242;29;20195;-84
2021/10/28 04:46:22;;;;;;;11.60;10.60;;;;;;;;;;4937210;29;20226;-84
2021/10/28 04:48:50;;;;;;;11.77;10.50;;;;;;;;;;4947726;28;20238;-85
2021/10/28 04:51:17;;;;;;;12.80;11.43;;;;;;;;;;4969749;28;20211;-84
2021/10/28 04:53:44;;;;;;;10.80;9.70;;;;;;;;;;4976220;28;20248;-84
2021/10/28 04:56:11;;;;;;;10.13;9.13;;;;;;;;;;4975536;28;20264;-84
2021/10/28 04:58:40;;;;;;;24.70;17.97;;;;;;;;;;4976134;28;20250;-84
2021/10/28 05:01:07;;;;;;;25.57;18.30;;;;;;;;;;4976184;28;20255;-84
2021/10/28 05:03:35;;;;;;;112.80;68.93;;;;;;;;;;4976441;28;20201;-84
2021/10/28 05:06:03;;;;;;;72.20;50.93;;;;;;;;;;4976259;28;20600;-84
2021/10/28 05:08:31;;;;;;;43.17;32.53;;;;;;;;;;4976085;28;20240;-84
2021/10/28 05:10:58;;;;;;;29.60;21.67;;;;;;;;;;4976002;28;20200;-84
2021/10/28 05:13:25;;;;;;;19.60;16.37;;;;;;;;;;4976084;28;20200;-84
2021/10/28 05:15:54;;;;;;;18.47;16.33;;;;;;;;;;4975350;28;20235;-84
2021/10/28 05:18:23;;;;;;;14.10;12.60;;;;;;;;;;4975636;28;20656;-84
2021/10/28 05:20:51;;;;;;;10.63;9.27;;;;;;;;;;4975725;28;20207;-84
2021/10/28 05:23:18;;;;;;;11.47;8.43;;;;;;;;;;4976268;28;20205;-84
2021/10/28 05:25:47;;;;;;;9.37;8.43;;;;;;;;;;4975891;28;20275;-84
2021/10/28 05:28:15;;;;;;;9.13;8.23;;;;;;;;;;4975710;28;20205;-84
2021/10/28 05:30:42;;;;;;;10.17;9.07;;;;;;;;;;4975319;28;20200;-84
2021/10/28 05:33:10;;;;;;;9.07;8.20;;;;;;;;;;4975634;28;20637;-84
2021/10/28 05:35:38;;;;;;;10.63;9.53;;;;;;;;;;4975803;28;20653;-84
2021/10/28 05:38:05;;;;;;;14.17;10.93;;;;;;;;;;4975512;28;20243;-84
2021/10/28 05:40:32;;;;;;;14.57;13.03;;;;;;;;;;4975584;28;20674;-84
2021/10/28 05:43:01;;;;;;;10.13;9.13;;;;;;;;;;4975777;28;20229;-84
2021/10/28 05:45:29;;;;;;;8.63;7.23;;;;;;;;;;4975627;28;20197;-84
2021/10/28 05:47:56;;;;;;;9.17;8.30;;;;;;;;;;4975380;28;20669;-84
2021/10/28 05:50:25;;;;;;;9.73;8.37;;;;;;;;;;4974823;28;20623;-84
2021/10/28 05:52:54;;;;;;;9.30;8.40;;;;;;;;;;4975775;28;20216;-84
2021/10/28 05:55:22;;;;;;;10.37;8.40;;;;;;;;;;4975446;28;20197;-84
2021/10/28 05:57:50;;;;;;;10.77;9.67;;;;;;;;;;4974931;28;20205;-83
2021/10/28 06:00:18;;;;;;;17.30;9.53;;;;;;;;;;4974911;28;20204;-84
2021/10/28 06:02:45;;;;;;;10.87;8.73;;;;;;;;;;4975332;28;20223;-84
2021/10/28 06:05:13;;;;;;;10.20;9.20;;;;;;;;;;4974835;28;20316;-83
2021/10/28 06:07:42;;;;;;;10.73;9.67;;;;;;;;;;4975334;28;20275;-84
2021/10/28 06:10:11;;;;;;;13.87;11.33;;;;;;;;;;4974538;28;20252;-83
2021/10/28 06:12:40;;;;;;;15.83;12.03;;;;;;;;;;4975192;28;20205;-84
2021/10/28 06:15:10;;;;;;;11.83;10.60;;;;;;;;;;4974754;28;20209;-83
2021/10/28 06:17:44;;;;;;;15.07;11.97;;;;;;;;;;4974905;28;20201;-83
2021/10/28 06:20:12;;;;;;;11.83;10.00;;;;;;;;;;4974642;28;20284;-84
2021/10/28 06:22:40;;;;;;;13.63;12.27;;;;;;;;;;4974739;28;20201;-83
2021/10/28 06:25:09;;;;;;;12.73;11.43;;;;;;;;;;4974831;28;20675;-83
2021/10/28 06:27:37;;;;;;;17.53;15.83;;;;;;;;;;4974389;28;20251;-83
2021/10/28 06:30:04;;;;;;;16.67;13.87;;;;;;;;;;4974151;28;20197;-83
2021/10/28 06:32:32;;;;;;;16.70;13.77;;;;;;;;;;4974558;28;20232;-83
2021/10/28 06:35:02;;;;;;;15.30;11.47;;;;;;;;;;4974227;28;20241;-82
2021/10/28 06:37:29;;;;;;;13.60;11.00;;;;;;;;;;4974391;28;20571;-83
2021/10/28 06:39:57;;;;;;;12.30;8.50;;;;;;;;;;4974130;28;20232;-83
2021/10/28 06:42:27;;;;;;;10.80;9.63;;;;;;;;;;4974190;28;20209;-83
2021/10/28 06:44:54;;;;;;;10.87;9.70;;;;;;;;;;4974237;28;20742;-83
2021/10/28 06:47:21;;;;;;;11.50;10.30;;;;;;;;;;4973981;28;20204;-83
2021/10/28 06:49:49;;;;;;;17.30;11.33;;;;;;;;;;4972502;28;20663;-82
2021/10/28 06:52:16;;;;;;;11.60;10.37;;;;;;;;;;4973043;28;20259;-83
2021/10/28 06:54:46;;;;;;;10.83;9.77;;;;;;;;;;4974262;28;20223;-83
2021/10/28 06:57:47;;;;;;;11.83;10.63;;;;;;;;;;4973689;28;20200;-83
2021/10/28 07:03:02;;;;;;;13.30;10.50;;;;;;;;;;4974101;28;20669;-83
2021/10/28 07:05:30;;;;;;;11.23;9.93;;;;;;;;;;4973476;28;20201;-82
2021/10/28 07:07:57;;;;;;;13.23;9.60;;;;;;;;;;4973800;28;20215;-83
2021/10/28 07:10:25;;;;;;;13.90;9.73;;;;;;;;;;4973695;28;20235;-84
2021/10/28 07:12:56;;;;;;;14.43;12.60;;;;;;;;;;4974081;28;20292;-84
2021/10/28 07:15:30;;;;;;;13.77;10.93;;;;;;;;;;4973540;28;20280;-83
2021/10/28 07:18:16;;;;;;;14.83;13.30;;;;;;;;;;4973490;28;20201;-83
2021/10/28 07:26:42;;;;;;;11.30;10.10;;;;;;;;;;4973602;28;20200;-83
2021/10/28 07:35:01;;;;;;;14.67;11.27;;;;;;;;;;4973651;28;20244;-83
2021/10/28 08:19:01;;;;;;;5.53;5.03;;;;;;;;;;4971929;28;20212;-83
2021/10/28 08:21:36;;;;;;;6.13;4.47;;;;;;;;;;4972898;28;20219;-83
2021/10/28 08:24:16;;;;;;;7.97;4.77;;;;;;;;;;4973142;28;20633;-83
2021/10/28 08:29:32;;;;;;;8.50;6.67;;;;;;;;;;4973480;28;20235;-83
2021/10/28 08:32:00;;;;;;;6.87;5.40;;;;;;;;;;4972615;28;20204;-83
2021/10/28 08:34:29;;;;;;;5.90;5.03;;;;;;;;;;4973267;28;20351;-83
2021/10/28 08:37:06;;;;;;;12.47;9.07;;;;;;;;;;4972772;28;20228;-83
2021/10/28 08:39:33;;;;;;;8.97;5.93;;;;;;;;;;4973346;28;20206;-84
2021/10/28 08:42:02;;;;;;;6.40;5.80;;;;;;;;;;4972810;28;20556;-84
2021/10/28 08:44:31;;;;;;;5.23;4.73;;;;;;;;;;4972571;28;20592;-83
2021/10/28 08:46:59;;;;;;;7.73;5.83;;;;;;;;;;4973012;28;20208;-86
2021/10/28 08:49:31;;;;;;;7.93;6.10;;;;;;;;;;4972749;28;20232;-83
2021/10/28 08:52:11;;;;;;;7.33;5.67;;;;;;;;;;4975209;28;20193;-83
2021/10/28 08:55:02;;;;;;;6.17;5.00;;;;;;;;;;4976588;28;20247;-83
2021/10/28 08:57:57;;;;;;;5.80;4.80;;;;;;;;;;4976622;28;20571;-83
2021/10/28 09:26:19;;;;;;;8.80;4.77;;;;;;;;;;4975957;28;20264;-82
2021/10/28 09:28:51;;;;;;;7.17;6.17;;;;;;;;;;4975626;28;20197;-82
2021/10/28 09:31:20;;;;;;;8.30;4.90;;;;;;;;;;4975545;28;20194;-83
2021/10/28 09:33:59;;;;;;;9.97;5.57;;;;;;;;;;4975993;28;20205;-82
2021/10/28 09:45:17;;;;;;;9.40;6.27;;;;;;;;;;4975853;28;20188;-83
2021/10/28 09:47:51;;;;;;;9.07;6.53;;;;;;;;;;4975964;28;20199;-83
2021/10/28 09:50:24;;;;;;;7.33;5.90;;;;;;;;;;4975051;28;20240;-83
2021/10/28 09:53:08;;;;;;;8.50;5.70;;;;;;;;;;4975363;28;20193;-83
2021/10/28 09:58:34;;;;;;;8.50;6.23;;;;;;;;;;4975277;28;20235;-83
2021/10/28 10:01:02;;;;;;;7.47;5.90;;;;;;;;;;4975284;28;20193;-83
2021/10/28 10:03:31;;;;;;;7.90;7.10;;;;;;;;;;4975071;28;20199;-82
2021/10/28 10:06:02;;;;;;;8.50;7.53;;;;;;;;;;4975234;28;20202;-83
2021/10/28 10:08:29;;;;;;;7.07;6.37;;;;;;;;;;4975035;28;20190;-83
2021/10/28 10:10:57;;;;;;;8.37;7.40;;;;;;;;;;4974860;28;20219;-83
2021/10/28 10:13:24;;;;;;;7.10;5.00;;;;;;;;;;4975261;28;20267;-83
2021/10/28 10:15:56;;;;;;;10.30;7.27;;;;;;;;;;4974566;28;20228;-83
2021/10/28 10:18:24;;;;;;;6.87;6.17;;;;;;;;;;4974965;28;20271;-82
2021/10/28 10:20:55;;;;;;;8.93;6.53;;;;;;;;;;4974555;28;20228;-82
2021/10/28 10:26:38;;;;;;;9.80;8.20;;;;;;;;;;4915090;29;20323;-83
2021/10/28 12:20:17;;;;;;;8.83;7.33;;;;;;;;;;4972217;28;20286;-83
2021/10/28 12:45:09;;;;;;;7.20;6.00;;;;;;;;;;4976810;28;20240;-84
2021/10/28 12:50:47;;;;;;;5.73;5.17;;;;;;;;;;4975892;28;20246;-85
2021/10/28 12:53:46;;;;;;;6.83;5.80;;;;;;;;;;4976596;28;20219;-84
2021/10/28 12:56:43;;;;;;;7.63;5.90;;;;;;;;;;4976353;28;20235;-84
2021/10/28 13:02:32;;;;;;;7.90;6.60;;;;;;;;;;4976204;28;20625;-84
2021/10/28 13:27:57;;;;;;;7.70;6.90;;;;;;;;;;4976340;28;20192;-84
2021/10/28 13:47:58;;;;;;;10.77;8.70;;;;;;;;;;4970997;28;20203;-83
2021/10/28 13:49:56;;;;;;;12.13;10.87;;;;;;;;;;4975316;28;20243;-84
2021/10/28 13:52:47;;;;;;;5.50;5.10;;;;;;;;;;4975413;28;20235;-83
2021/10/28 13:55:23;;;;;;;5.50;5.00;;;;;;;;;;4975268;28;20196;-83
2021/10/28 13:58:12;;;;;;;5.13;4.53;;;;;;;;;;4975146;28;20637;-83
2021/10/28 14:01:05;;;;;;;6.23;5.63;;;;;;;;;;4975086;28;20216;-84
2021/10/28 14:23:20;;;;;;;15.23;13.37;;;;;;;;;;4974878;28;20653;-83
2021/10/28 15:29:29;;;;;;;15.17;13.57;;;;;;;;;;4935542;29;20234;-83
2021/10/28 15:34:46;;;;;;;23.73;21.20;;;;;;;;;;4930570;29;20206;-83
2021/10/28 15:37:18;;;;;;;15.93;14.37;;;;;;;;;;4934868;29;20295;-83
2021/10/28 15:39:56;;;;;;;11.77;10.67;;;;;;;;;;4931206;29;20222;-83
2021/10/28 15:56:38;;;;;;;9.70;8.67;;;;;;;;;;4934563;29;20213;-84
2021/10/28 16:23:56;;;;;;;16.83;14.93;;;;;;;;;;4934870;29;20210;-85
2021/10/28 16:26:24;;;;;;;22.77;15.93;;;;;;;;;;4934457;29;20206;-84
2021/10/28 16:28:51;;;;;;;14.20;12.73;;;;;;;;;;4934391;29;20226;-83
2021/10/28 16:31:19;;;;;;;19.73;12.80;;;;;;;;;;4934462;29;20234;-84
2021/10/28 16:33:46;;;;;;;19.53;16.37;;;;;;;;;;4934627;29;20671;-84
2021/10/28 16:36:15;;;;;;;35.97;27.57;;;;;;;;;;4934785;29;20638;-84
2021/10/28 16:38:43;;;;;;;42.27;35.40;;;;;;;;;;4938789;29;20202;-84
2021/10/28 16:41:10;;;;;;;40.17;32.50;;;;;;;;;;4944482;29;20232;-84
2021/10/28 16:43:38;;;;;;;38.37;32.27;;;;;;;;;;4937795;29;20238;-84
2021/10/28 16:46:05;;;;;;;27.63;24.47;;;;;;;;;;4944645;29;20238;-84
2021/10/28 16:48:32;;;;;;;24.20;20.80;;;;;;;;;;4944692;29;20263;-83
2021/10/28 16:51:00;;;;;;;27.77;20.90;;;;;;;;;;4946727;29;20254;-84
2021/10/28 16:53:29;;;;;;;18.87;15.50;;;;;;;;;;4943651;29;20225;-84
2021/10/28 16:55:56;;;;;;;36.13;28.97;;;;;;;;;;4943645;29;20242;-84
2021/10/28 16:58:23;;;;;;;35.87;29.70;;;;;;;;;;4943129;29;20199;-84
2021/10/28 17:00:51;;;;;;;15.30;11.63;;;;;;;;;;4942042;29;20246;-84
2021/10/28 17:03:18;;;;;;;12.83;10.93;;;;;;;;;;4944214;29;20206;-85
2021/10/28 17:05:46;;;;;;;15.03;12.20;;;;;;;;;;4938605;29;20203;-84
2021/10/28 17:08:14;;;;;;;16.63;10.13;;;;;;;;;;4934306;29;20210;-83
2021/10/28 17:10:44;;;;;;;19.67;16.00;;;;;;;;;;4934956;29;20676;-84
2021/10/28 17:13:11;;;;;;;16.87;11.63;;;;;;;;;;4935919;29;20677;-84
2021/10/28 17:15:39;;;;;;;8.57;7.77;;;;;;;;;;4937620;29;20202;-84
2021/10/28 17:18:06;;;;;;;8.40;7.60;;;;;;;;;;4937994;29;20286;-84
2021/10/28 17:20:35;;;;;;;7.30;6.60;;;;;;;;;;4937913;29;20306;-83
2021/10/28 17:23:03;;;;;;;8.13;6.87;;;;;;;;;;4937944;29;20197;-84
2021/10/28 17:25:32;;;;;;;14.33;10.27;;;;;;;;;;4937765;29;20588;-83
2021/10/28 17:28:02;;;;;;;19.23;15.80;;;;;;;;;;4937999;29;20755;-84
2021/10/28 17:30:30;;;;;;;31.50;27.10;;;;;;;;;;4938031;29;20222;-84
2021/10/28 17:32:57;;;;;;;25.50;23.00;;;;;;;;;;4935938;29;20210;-84
2021/10/28 17:35:25;;;;;;;29.33;25.97;;;;;;;;;;4935848;29;20207;-83
2021/10/28 17:37:52;;;;;;;24.30;21.70;;;;;;;;;;4946137;29;20212;-84
2021/10/28 17:40:20;;;;;;;21.00;18.50;;;;;;;;;;4954907;29;20225;-83
2021/10/28 17:42:48;;;;;;;21.20;14.27;;;;;;;;;;4954969;29;20229;-85
2021/10/28 17:45:17;;;;;;;15.23;13.00;;;;;;;;;;4954679;29;20206;-83
2021/10/28 17:47:46;;;;;;;7.20;6.50;;;;;;;;;;4955049;29;20198;-83
2021/10/28 17:50:13;;;;;;;39.20;34.93;;;;;;;;;;4954752;29;20740;-84
2021/10/28 17:52:41;;;;;;;20.27;18.00;;;;;;;;;;4954834;29;20225;-83
2021/10/28 17:55:10;;;;;;;40.40;36.53;;;;;;;;;;4954850;29;20292;-84
2021/10/28 17:57:38;;;;;;;19.07;16.00;;;;;;;;;;4946747;29;20288;-83
2021/10/28 18:00:07;;;;;;;16.13;12.90;;;;;;;;;;4954758;29;20201;-84
2021/10/28 18:02:36;;;;;;;79.97;61.33;;;;;;;;;;4954714;29;20248;-83
2021/10/28 18:05:04;;;;;;;34.87;29.33;;;;;;;;;;4954971;29;20233;-83
2021/10/28 18:07:31;;;;;;;17.93;16.10;;;;;;;;;;4954586;29;20295;-83
2021/10/28 18:09:59;;;;;;;16.80;14.07;;;;;;;;;;4954985;29;20209;-83
2021/10/28 18:12:27;;;;;;;13.80;9.20;;;;;;;;;;4954229;29;20198;-83
2021/10/28 18:14:54;;;;;;;14.83;11.83;;;;;;;;;;4954250;29;20208;-83
2021/10/28 18:17:22;;;;;;;16.03;12.33;;;;;;;;;;4947227;29;20195;-83
2021/10/28 18:19:51;;;;;;;22.10;15.83;;;;;;;;;;4928308;29;20202;-83
2021/10/28 18:22:19;;;;;;;18.60;12.70;;;;;;;;;;4924486;29;20622;-81
2021/10/28 18:24:46;;;;;;;15.33;11.83;;;;;;;;;;4915269;29;20254;-83
2021/10/28 18:27:13;;;;;;;13.30;10.13;;;;;;;;;;4915976;29;20302;-82
2021/10/28 18:29:41;;;;;;;13.73;11.53;;;;;;;;;;4916066;29;20259;-83
2021/10/28 18:32:09;;;;;;;17.47;12.23;;;;;;;;;;4916007;29;20200;-83
2021/10/28 18:34:37;;;;;;;19.20;12.17;;;;;;;;;;4916432;29;20204;-83
2021/10/28 18:37:06;;;;;;;18.30;10.43;;;;;;;;;;4915415;29;20196;-82
2021/10/28 18:39:33;;;;;;;10.03;8.30;;;;;;;;;;4916033;29;20301;-83
2021/10/28 18:42:00;;;;;;;8.77;7.23;;;;;;;;;;4915721;29;20315;-83
2021/10/28 18:44:28;;;;;;;9.67;8.77;;;;;;;;;;4916059;29;20244;-83
2021/10/28 18:46:56;;;;;;;11.53;9.77;;;;;;;;;;4915435;29;20208;-82
2021/10/28 18:49:23;;;;;;;9.73;7.30;;;;;;;;;;4915578;29;20239;-83
2021/10/28 18:51:51;;;;;;;7.93;7.13;;;;;;;;;;4922164;29;20669;-83
2021/10/28 18:54:21;;;;;;;13.53;9.13;;;;;;;;;;4928661;29;20578;-83
2021/10/28 18:56:49;;;;;;;12.93;8.57;;;;;;;;;;4928196;29;20199;-82
2021/10/28 18:59:17;;;;;;;10.60;7.80;;;;;;;;;;4929121;29;20195;-83
2021/10/28 19:01:45;;;;;;;13.73;9.67;;;;;;;;;;4935722;29;20229;-82
2021/10/28 19:04:12;;;;;;;14.53;8.43;;;;;;;;;;4953493;29;20217;-83
2021/10/28 19:06:39;;;;;;;10.37;7.37;;;;;;;;;;4953353;29;20197;-83
2021/10/28 19:09:07;;;;;;;10.60;7.97;;;;;;;;;;4953739;29;20308;-82
2021/10/28 19:11:35;;;;;;;11.47;6.83;;;;;;;;;;4951329;29;20288;-83
2021/10/28 19:14:03;;;;;;;8.27;6.83;;;;;;;;;;4953326;29;20202;-82
2021/10/28 19:16:30;;;;;;;9.10;7.73;;;;;;;;;;4952925;29;20206;-83
2021/10/28 19:18:57;;;;;;;11.37;7.40;;;;;;;;;;4953697;29;20644;-83
2021/10/28 19:21:25;;;;;;;9.10;7.57;;;;;;;;;;4945097;29;20225;-83
2021/10/28 19:23:53;;;;;;;10.00;7.17;;;;;;;;;;4934050;29;20214;-83
2021/10/28 19:26:21;;;;;;;9.27;7.87;;;;;;;;;;4934207;29;20277;-82
2021/10/28 19:28:50;;;;;;;8.43;7.40;;;;;;;;;;4948731;29;20674;-83
2021/10/28 19:31:20;;;;;;;9.93;6.73;;;;;;;;;;4952930;29;20198;-82
2021/10/28 19:33:52;;;;;;;11.20;7.10;;;;;;;;;;4953387;29;20221;-82
2021/10/28 19:36:26;;;;;;;7.90;7.07;;;;;;;;;;4952219;28;20197;-82
2021/10/28 19:39:13;;;;;;;10.87;7.67;;;;;;;;;;4953463;29;20649;-82
2021/10/28 19:47:13;;;;;;;9.77;8.33;;;;;;;;;;4937601;29;20206;-82
2021/10/28 19:49:42;;;;;;;9.07;8.17;;;;;;;;;;4921275;29;20787;-83
2021/10/28 19:52:11;;;;;;;10.43;8.17;;;;;;;;;;4916166;29;20639;-83
2021/10/28 19:54:39;;;;;;;15.37;9.37;;;;;;;;;;4915624;29;20298;-82
2021/10/28 19:57:11;;;;;;;20.70;12.57;;;;;;;;;;4915716;29;20205;-83
2021/10/28 19:59:45;;;;;;;14.73;11.83;;;;;;;;;;4915757;29;20732;-83
2021/10/28 20:02:17;;;;;;;13.70;11.30;;;;;;;;;;4915591;29;20215;-83
2021/10/28 20:05:20;;;;;;;10.73;9.63;;;;;;;;;;4915354;29;20199;-82
2021/10/28 20:13:46;;;;;;;49.77;34.20;;;;;;;;;;4915904;29;20736;-82
2021/10/28 20:21:44;;;;;;;26.30;18.97;;;;;;;;;;4915463;29;20255;-83
2021/10/28 20:24:12;;;;;;;16.27;11.73;;;;;;;;;;4915525;29;20237;-82
2021/10/28 20:26:39;;;;;;;15.90;12.93;;;;;;;;;;4915329;29;20207;-82
2021/10/28 20:29:06;;;;;;;54.13;34.00;;;;;;;;;;4915489;29;20262;-82
2021/10/28 20:31:35;;;;;;;16.83;11.97;;;;;;;;;;4915435;29;20209;-82
2021/10/28 20:34:14;;;;;;;9.23;8.33;;;;;;;;;;4915539;29;20242;-82
2021/10/28 20:39:27;;;;;;;19.17;15.47;;;;;;;;;;4915746;29;20311;-82
2021/10/28 20:41:54;;;;;;;20.73;14.00;;;;;;;;;;4915047;29;20223;-83
2021/10/28 20:44:21;;;;;;;14.80;10.37;;;;;;;;;;4915815;29;20204;-82
2021/10/28 20:46:50;;;;;;;11.80;9.63;;;;;;;;;;4916134;29;20762;-82
2021/10/28 20:49:17;;;;;;;10.57;9.23;;;;;;;;;;4918739;29;20290;-82
2021/10/28 20:51:45;;;;;;;11.60;9.03;;;;;;;;;;4919021;29;20253;-82
2021/10/28 20:54:12;;;;;;;9.53;8.57;;;;;;;;;;4918643;29;20263;-82
2021/10/28 20:56:40;;;;;;;9.83;8.93;;;;;;;;;;4918515;29;20254;-82
2021/10/28 20:59:07;;;;;;;8.60;7.80;;;;;;;;;;4918899;29;20235;-82
2021/10/28 21:01:35;;;;;;;8.50;7.10;;;;;;;;;;4918449;29;20224;-82
2021/10/28 21:04:04;;;;;;;31.10;22.90;;;;;;;;;;4918800;29;20207;-82
2021/10/28 21:06:31;;;;;;;17.07;12.57;;;;;;;;;;4918488;29;20262;-82
2021/10/28 21:08:58;;;;;;;18.57;14.53;;;;;;;;;;4918654;29;20231;-82
2021/10/28 21:11:26;;;;;;;14.97;11.57;;;;;;;;;;4918450;29;20200;-82
2021/10/28 21:13:54;;;;;;;13.10;9.10;;;;;;;;;;4918240;29;20207;-83
2021/10/28 21:16:21;;;;;;;11.57;8.23;;;;;;;;;;4918627;29;20199;-83
2021/10/28 21:18:48;;;;;;;9.13;7.80;;;;;;;;;;4918598;29;20230;-82
2021/10/28 21:21:18;;;;;;;9.03;7.23;;;;;;;;;;4918230;29;20331;-83
2021/10/28 21:23:45;;;;;;;6.93;6.23;;;;;;;;;;4918378;29;20211;-82
2021/10/28 21:26:13;;;;;;;9.50;6.90;;;;;;;;;;4917888;29;20703;-82
2021/10/28 21:28:40;;;;;;;6.83;6.23;;;;;;;;;;4918212;29;20206;-82
2021/10/28 21:31:08;;;;;;;9.30;6.20;;;;;;;;;;4917974;29;20302;-82
2021/10/28 21:33:35;;;;;;;5.97;5.40;;;;;;;;;;4918025;29;20200;-82
2021/10/28 21:36:03;;;;;;;10.23;9.20;;;;;;;;;;4917911;29;20235;-82
2021/10/28 21:38:32;;;;;;;18.73;14.93;;;;;;;;;;4918407;29;20210;-82
2021/10/28 21:40:59;;;;;;;19.03;13.73;;;;;;;;;;4916447;29;20263;-82
2021/10/28 21:43:27;;;;;;;18.00;9.57;;;;;;;;;;4916652;29;20234;-82
2021/10/28 21:45:54;;;;;;;16.57;9.83;;;;;;;;;;4917487;29;20203;-82
2021/10/28 21:48:22;;;;;;;10.83;7.87;;;;;;;;;;4917865;29;20208;-82
2021/10/28 21:50:55;;;;;;;10.70;7.97;;;;;;;;;;4917770;29;20196;-82
2021/10/28 21:53:22;;;;;;;9.63;7.70;;;;;;;;;;4917673;29;20192;-82
2021/10/28 21:55:54;;;;;;;9.47;7.67;;;;;;;;;;4917559;29;20238;-82
2021/10/28 21:58:32;;;;;;;8.67;7.77;;;;;;;;;;4917135;29;20283;-82
2021/10/28 22:01:10;;;;;;;8.50;7.53;;;;;;;;;;4917296;29;20191;-82
2021/10/28 22:25:59;;;;;;;9.00;7.27;;;;;;;;;;4859241;29;20238;-82
2021/10/28 22:28:28;;;;;;;10.80;7.83;;;;;;;;;;4858819;29;20237;-82
2021/10/28 22:30:55;;;;;;;8.77;6.90;;;;;;;;;;4858878;29;20300;-82
2021/10/28 22:33:23;;;;;;;12.87;7.57;;;;;;;;;;4858939;29;20205;-82
2021/10/28 22:35:52;;;;;;;9.87;7.40;;;;;;;;;;4858959;29;20694;-82
2021/10/28 22:38:23;;;;;;;9.10;8.20;;;;;;;;;;4900512;29;20204;-82
2021/10/28 22:40:52;;;;;;;8.03;7.23;;;;;;;;;;4917000;29;20192;-82
2021/10/28 22:43:20;;;;;;;8.30;7.50;;;;;;;;;;4917333;29;20236;-82
2021/10/28 22:45:49;;;;;;;8.67;7.80;;;;;;;;;;4916486;29;20275;-82
2021/10/28 22:48:19;;;;;;;8.53;7.63;;;;;;;;;;4916806;29;20195;-82
2021/10/28 22:50:47;;;;;;;9.67;6.60;;;;;;;;;;4916626;29;20211;-82
2021/10/28 22:53:17;;;;;;;8.67;7.77;;;;;;;;;;4916665;29;20251;-82
2021/10/28 22:55:45;;;;;;;7.10;6.40;;;;;;;;;;4916739;29;20261;-83
2021/10/28 22:58:16;;;;;;;8.90;6.60;;;;;;;;;;4916290;29;20208;-82
2021/10/28 23:00:48;;;;;;;8.60;6.00;;;;;;;;;;4916523;29;20202;-83
2021/10/28 23:03:28;;;;;;;8.13;6.43;;;;;;;;;;4916776;29;20219;-82
2021/10/28 23:14:44;;;;;;;7.43;6.50;;;;;;;;;;4916714;29;20685;-82